Time;durP1;ratioP1;P1;durP2;ratioP2;P2;SDS_P1;SDS_P2;PMS_P1;PMS_P2;Temp;Humidity;BMP_temperature;BMP_pressure;BME280_temperature;BME280_humidity;BME280_pressure;Samples;Min_cycle;Max_cycle;Signal;HPM_P1;HPM_P2
2021/12/26 00:02:08;;;;;;;62.30;47.45;;;;;;;3.34;87.28;97579.75;4955691;28;20042;-60
2021/12/26 00:04:34;;;;;;;58.47;43.83;;;;;;;3.59;89.33;97626.56;4955257;28;20449;-61
2021/12/26 00:07:00;;;;;;;49.92;39.58;;;;;;;3.18;89.33;97558.78;4954321;28;20042;-60
2021/12/26 00:09:26;;;;;;;52.53;40.13;;;;;;;3.34;90.43;97614.88;4955362;28;20031;-60
2021/12/26 00:11:52;;;;;;;49.05;37.92;;;;;;;3.50;89.98;97614.47;4964241;28;20394;-59
2021/12/26 00:14:18;;;;;;;49.70;38.60;;;;;;;3.44;90.62;97608.88;4960206;28;20437;-61
2021/12/26 00:16:44;;;;;;;46.17;36.22;;;;;;;3.25;90.62;97565.06;4960089;28;20390;-61
2021/12/26 00:19:09;;;;;;;51.53;38.63;;;;;;;3.48;91.09;97601.72;4973724;28;20109;-61
2021/12/26 00:21:35;;;;;;;49.50;38.05;;;;;;;3.14;91.01;97553.09;4960526;28;20039;-61
2021/12/26 00:24:01;;;;;;;50.88;39.60;;;;;;;3.39;91.29;97607.63;4976642;28;20133;-61
2021/12/26 00:26:27;;;;;;;48.30;37.92;;;;;;;3.12;91.30;97559.28;4955286;28;20058;-61
2021/12/26 00:28:53;;;;;;;48.90;37.53;;;;;;;3.19;91.46;97565.53;4978228;28;20042;-61
2021/12/26 00:31:19;;;;;;;50.90;37.08;;;;;;;3.41;90.72;97596.28;4975123;28;20057;-61
2021/12/26 00:33:45;;;;;;;48.08;37.85;;;;;;;3.40;91.68;97619.53;4977193;28;20145;-61
2021/12/26 00:36:12;;;;;;;51.47;37.38;;;;;;;3.45;91.30;97623.38;4976742;28;20501;-61
2021/12/26 00:38:37;;;;;;;47.28;36.65;;;;;;;3.34;91.47;97604.59;4944079;28;20033;-61
2021/12/26 00:41:03;;;;;;;49.63;37.45;;;;;;;3.44;91.22;97626.06;4961282;28;20039;-61
2021/12/26 00:43:28;;;;;;;46.95;35.25;;;;;;;3.25;90.95;97573.59;4971153;28;20041;-61
2021/12/26 00:45:54;;;;;;;45.28;35.50;;;;;;;3.35;90.52;97583.91;4955684;28;20097;-61
2021/12/26 00:48:20;;;;;;;46.75;34.88;;;;;;;3.65;90.42;97621.75;4958333;28;20085;-61
2021/12/26 00:50:46;;;;;;;44.63;34.70;;;;;;;3.39;90.63;97587.06;4962238;28;20046;-61
2021/12/26 00:53:11;;;;;;;47.28;35.67;;;;;;;3.63;90.50;97622.78;4953002;28;20035;-60
2021/12/26 00:55:37;;;;;;;47.60;35.10;;;;;;;3.57;90.60;97606.13;4960094;28;20089;-61
2021/12/26 00:58:03;;;;;;;45.97;34.40;;;;;;;3.60;91.71;97617.94;4978627;28;20049;-61
2021/12/26 01:00:36;;;;;;;45.90;34.60;;;;;;;3.50;92.08;97615.25;4973739;28;20031;-61
2021/12/26 01:03:02;;;;;;;43.17;32.75;;;;;;;3.51;91.42;97616.91;4956651;28;20041;-61
2021/12/26 01:05:29;;;;;;;44.00;34.88;;;;;;;3.44;91.59;97605.50;4949936;28;20035;-61
2021/12/26 01:10:22;;;;;;;42.92;33.20;;;;;;;3.27;90.80;97573.47;4973075;28;20047;-61
2021/12/26 01:12:48;;;;;;;51.38;34.92;;;;;;;3.40;91.49;97593.84;4955214;28;20030;-61
2021/12/26 01:15:14;;;;;;;43.92;33.63;;;;;;;3.64;90.96;97619.28;4959021;28;20045;-61
2021/12/26 01:17:41;;;;;;;46.30;34.13;;;;;;;3.54;90.64;97615.84;4962311;28;20031;-61
2021/12/26 01:20:18;;;;;;;41.60;31.58;;;;;;;3.22;91.31;97568.69;4955425;28;20030;-61
2021/12/26 01:22:44;;;;;;;41.45;30.70;;;;;;;3.55;91.51;97609.75;4962043;28;20073;-61
2021/12/26 01:25:09;;;;;;;40.03;30.25;;;;;;;3.49;91.12;97592.25;4960656;28;20030;-61
2021/12/26 01:27:35;;;;;;;40.50;30.35;;;;;;;3.65;90.75;97603.75;4944051;28;20061;-61
2021/12/26 01:30:03;;;;;;;42.22;32.40;;;;;;;3.27;90.96;97553.72;4960385;28;20102;-61
2021/12/26 01:32:28;;;;;;;42.25;30.98;;;;;;;3.00;91.18;97523.38;4963796;28;20022;-61
2021/12/26 01:34:53;;;;;;;41.03;29.73;;;;;;;3.58;91.09;97617.25;4961283;28;20061;-61
2021/12/26 01:37:19;;;;;;;40.58;32.00;;;;;;;3.25;91.14;97560.75;4964151;28;20051;-61
2021/12/26 01:39:45;;;;;;;42.22;32.20;;;;;;;3.22;91.80;97562.75;4977976;28;20034;-61
2021/12/26 01:42:10;;;;;;;42.15;32.55;;;;;;;3.21;92.40;97571.38;4968573;28;20344;-61
2021/12/26 01:44:37;;;;;;;43.08;32.78;;;;;;;3.33;92.61;97578.09;4957562;28;20015;-61
2021/12/26 01:47:04;;;;;;;39.13;30.42;;;;;;;3.65;92.50;97620.91;4959886;28;20067;-61
2021/12/26 01:49:32;;;;;;;39.08;30.63;;;;;;;3.66;92.14;97620.78;4962469;28;20034;-61
2021/12/26 01:52:00;;;;;;;42.10;31.98;;;;;;;3.65;92.30;97621.75;4961017;28;20054;-61
2021/12/26 01:54:42;;;;;;;39.42;28.92;;;;;;;3.64;92.60;97621.88;4956074;28;20034;-61
2021/12/26 01:57:10;;;;;;;40.05;30.45;;;;;;;3.27;92.35;97565.75;4960246;28;20501;-61
2021/12/26 01:59:37;;;;;;;40.60;30.90;;;;;;;3.62;92.74;97609.13;4960626;28;20108;-61
2021/12/26 02:02:03;;;;;;;42.53;30.80;;;;;;;3.56;92.83;97614.78;4960856;28;20026;-60
2021/12/26 02:04:28;;;;;;;41.25;28.13;;;;;;;3.47;92.28;97593.22;4962321;28;20041;-61
2021/12/26 02:06:58;;;;;;;43.55;31.15;;;;;;;3.66;92.06;97605.38;4979729;28;20081;-60
2021/12/26 02:09:24;;;;;;;39.75;30.08;;;;;;;3.40;92.24;97560.44;4976323;28;20030;-61
2021/12/26 02:11:50;;;;;;;41.05;30.40;;;;;;;3.77;91.35;97616.53;4962106;28;20030;-60
2021/12/26 02:14:15;;;;;;;35.95;28.27;;;;;;;3.81;91.21;97617.91;4963289;28;20027;-61
2021/12/26 02:16:41;;;;;;;35.88;26.95;;;;;;;3.82;91.90;97622.94;4977333;28;20041;-60
2021/12/26 02:19:07;;;;;;;41.03;29.33;;;;;;;3.67;92.68;97608.78;4975701;28;20596;-60
2021/12/26 02:24:33;;;;;;;39.72;29.23;;;;;;;3.65;92.24;97600.34;4964461;28;20405;-61
2021/12/26 02:29:38;;;;;;;32.38;25.42;;;;;;;3.70;93.10;97607.69;4953205;28;20070;-60
2021/12/26 02:32:04;;;;;;;39.58;28.70;;;;;;;3.70;92.92;97602.56;4954269;28;20034;-61
2021/12/26 02:34:30;;;;;;;38.50;30.00;;;;;;;3.74;92.52;97598.78;4963697;28;20490;-60
2021/12/26 02:36:55;;;;;;;35.90;28.25;;;;;;;3.67;92.64;97580.50;4959718;28;20041;-61
2021/12/26 02:39:20;;;;;;;38.50;29.17;;;;;;;3.70;92.78;97580.22;4964233;28;20027;-60
2021/12/26 02:41:46;;;;;;;37.38;27.50;;;;;;;3.74;92.19;97585.91;4963260;28;20814;-61
2021/12/26 02:44:11;;;;;;;39.95;29.00;;;;;;;3.78;92.53;97589.91;4979015;28;20105;-61
2021/12/26 02:46:37;;;;;;;37.15;27.05;;;;;;;3.74;92.76;97588.50;4979071;28;20034;-61
2021/12/26 02:49:03;;;;;;;35.47;27.23;;;;;;;3.76;92.96;97592.59;4963494;28;20441;-60
2021/12/26 02:51:28;;;;;;;34.85;27.58;;;;;;;3.71;93.02;97578.47;4966577;28;20030;-61
2021/12/26 02:53:54;;;;;;;37.97;28.92;;;;;;;3.81;93.36;97590.44;4978802;28;20070;-61
2021/12/26 02:56:19;;;;;;;35.30;26.05;;;;;;;3.47;92.77;97538.44;4964235;28;20077;-61
2021/12/26 02:58:45;;;;;;;35.47;26.52;;;;;;;3.81;93.06;97587.03;4957611;28;20035;-60
2021/12/26 03:01:13;;;;;;;32.78;25.38;;;;;;;3.49;92.68;97536.53;4963059;28;20035;-61
2021/12/26 03:03:39;;;;;;;31.92;22.75;;;;;;;3.85;93.14;97578.97;4965439;28;20027;-60
2021/12/26 03:06:14;;;;;;;34.67;27.25;;;;;;;3.82;93.31;97573.25;4966291;28;20615;-60
2021/12/26 03:08:40;;;;;;;36.63;27.67;;;;;;;3.87;93.14;97575.44;4977784;28;20127;-61
2021/12/26 03:11:06;;;;;;;31.30;23.63;;;;;;;3.84;91.22;97550.81;4961390;28;20042;-61
2021/12/26 03:13:32;;;;;;;27.77;20.35;;;;;;;3.96;88.41;97539.50;4964547;28;20023;-61
2021/12/26 03:15:57;;;;;;;30.65;21.98;;;;;;;4.35;88.08;97579.97;4961821;28;20039;-61
2021/12/26 03:18:23;;;;;;;31.67;23.88;;;;;;;4.28;89.17;97576.31;4963704;28;20057;-60
2021/12/26 03:20:50;;;;;;;34.15;25.13;;;;;;;4.20;89.38;97564.91;4979391;28;20442;-61
2021/12/26 03:23:21;;;;;;;34.92;26.00;;;;;;;4.14;90.53;97572.31;4963322;28;20034;-60
2021/12/26 03:25:47;;;;;;;34.40;24.85;;;;;;;4.06;89.98;97575.53;4962127;28;20030;-60
2021/12/26 03:28:13;;;;;;;32.70;23.55;;;;;;;3.74;90.16;97525.06;4977862;28;20027;-61
2021/12/26 03:30:39;;;;;;;31.27;24.15;;;;;;;4.14;89.48;97577.47;4964538;28;20073;-60
2021/12/26 03:33:07;;;;;;;32.15;24.02;;;;;;;4.19;89.08;97580.47;4941012;28;20031;-60
2021/12/26 03:35:34;;;;;;;31.45;24.27;;;;;;;4.10;88.67;97579.47;4954044;28;20031;-61
2021/12/26 03:38:02;;;;;;;30.52;23.08;;;;;;;3.81;88.73;97521.00;4978535;28;20031;-60
2021/12/26 03:40:27;;;;;;;27.05;20.27;;;;;;;4.02;86.76;97536.38;4968707;28;20062;-60
2021/12/26 03:42:53;;;;;;;31.05;21.88;;;;;;;4.30;86.57;97562.34;4961936;28;20058;-61
2021/12/26 03:45:20;;;;;;;33.35;23.50;;;;;;;4.29;86.88;97567.63;4977862;28;20053;-61
2021/12/26 03:47:50;;;;;;;30.45;23.10;;;;;;;4.04;88.05;97525.97;4964316;28;20734;-61
2021/12/26 03:50:18;;;;;;;33.08;25.52;;;;;;;4.03;88.66;97535.47;4961531;28;20045;-61
2021/12/26 03:52:43;;;;;;;31.17;22.40;;;;;;;4.07;87.28;97512.88;4979671;28;20031;-60
2021/12/26 03:55:09;;;;;;;30.40;22.73;;;;;;;4.40;88.31;97567.53;4960519;28;20034;-61
2021/12/26 03:57:34;;;;;;;28.92;20.85;;;;;;;4.35;88.97;97559.41;4962074;28;21001;-61
2021/12/26 03:59:59;;;;;;;29.00;20.98;;;;;;;4.59;85.57;97564.19;4962321;28;20046;-61
2021/12/26 04:02:25;;;;;;;32.05;23.38;;;;;;;4.52;85.69;97563.09;4963054;28;20866;-61
2021/12/26 04:04:50;;;;;;;31.70;24.40;;;;;;;4.51;86.18;97559.72;4977901;28;20046;-61
2021/12/26 04:07:16;;;;;;;26.67;18.52;;;;;;;4.35;87.06;97574.84;4954657;28;20143;-61
2021/12/26 04:09:41;;;;;;;27.95;20.33;;;;;;;4.29;88.10;97565.03;4978205;28;20023;-60
2021/12/26 04:12:07;;;;;;;28.90;22.48;;;;;;;3.96;87.16;97515.50;4962713;28;20061;-60
2021/12/26 04:14:33;;;;;;;28.77;22.77;;;;;;;4.21;87.91;97563.94;4963285;28;20955;-61
2021/12/26 04:16:58;;;;;;;30.92;23.20;;;;;;;3.99;89.07;97541.78;4960343;28;20027;-61
2021/12/26 04:19:24;;;;;;;34.13;23.77;;;;;;;4.14;89.75;97555.09;4961415;28;20115;-60
2021/12/26 04:21:49;;;;;;;30.35;22.17;;;;;;;3.76;89.22;97496.63;4963978;28;20046;-60
2021/12/26 04:24:14;;;;;;;30.80;22.17;;;;;;;4.02;89.84;97556.16;4962942;28;20027;-61
2021/12/26 04:26:40;;;;;;;30.73;22.65;;;;;;;3.99;90.75;97556.41;4963631;28;20031;-60
2021/12/26 04:29:07;;;;;;;29.40;21.95;;;;;;;3.86;90.25;97541.19;4945297;28;20541;-61
2021/12/26 04:31:33;;;;;;;29.58;22.88;;;;;;;3.70;90.41;97513.38;4963973;28;20041;-61
2021/12/26 04:33:58;;;;;;;29.75;21.75;;;;;;;3.98;90.74;97563.31;4958707;28;20399;-60
2021/12/26 04:36:24;;;;;;;32.65;23.88;;;;;;;3.97;90.17;97559.09;4958416;28;20035;-61
2021/12/26 04:38:50;;;;;;;29.10;22.30;;;;;;;3.79;89.55;97522.06;4979495;28;20038;-61
2021/12/26 04:41:15;;;;;;;28.52;21.75;;;;;;;3.92;90.20;97543.25;4957383;28;20038;-61
2021/12/26 04:43:41;;;;;;;28.33;21.10;;;;;;;3.96;90.56;97562.63;4940723;28;20482;-61
2021/12/26 04:46:08;;;;;;;29.42;22.73;;;;;;;3.49;90.18;97492.84;4940822;28;20034;-61
2021/12/26 04:48:35;;;;;;;32.60;23.45;;;;;;;3.94;90.56;97566.25;4962954;28;20074;-61
2021/12/26 04:51:01;;;;;;;30.92;23.13;;;;;;;3.93;90.82;97562.09;4944992;28;20034;-61
2021/12/26 04:53:27;;;;;;;32.20;22.80;;;;;;;4.02;90.52;97563.88;4976074;28;20019;-60
2021/12/26 04:55:52;;;;;;;32.13;23.55;;;;;;;3.95;91.08;97563.56;4979528;28;20062;-60
2021/12/26 04:58:18;;;;;;;32.35;23.23;;;;;;;3.87;91.90;97549.72;4976621;28;20108;-61
2021/12/26 05:00:43;;;;;;;32.95;23.75;;;;;;;3.93;92.35;97557.75;4965356;28;20493;-60
2021/12/26 05:03:09;;;;;;;31.00;23.00;;;;;;;4.00;91.99;97556.28;4977343;28;20027;-61
2021/12/26 05:05:35;;;;;;;30.30;22.85;;;;;;;3.99;91.57;97549.50;4962362;28;20124;-60
2021/12/26 05:08:01;;;;;;;27.85;20.88;;;;;;;4.01;92.06;97546.81;4977801;28;20029;-61
2021/12/26 05:10:28;;;;;;;31.35;22.10;;;;;;;4.04;92.16;97554.28;4945755;28;20022;-61
2021/12/26 05:12:55;;;;;;;31.20;23.05;;;;;;;3.99;93.29;97549.50;4968282;28;20051;-61
2021/12/26 05:15:21;;;;;;;31.25;23.70;;;;;;;3.63;92.49;97501.97;4931177;28;20038;-61
2021/12/26 05:17:48;;;;;;;29.20;22.00;;;;;;;3.70;92.29;97503.09;4961700;28;20042;-61
2021/12/26 05:20:14;;;;;;;31.30;23.52;;;;;;;3.57;93.20;97489.63;4977030;28;20023;-60
2021/12/26 05:22:39;;;;;;;28.80;22.25;;;;;;;3.88;92.98;97549.59;4959946;28;20034;-60
2021/12/26 05:25:07;;;;;;;30.80;21.90;;;;;;;3.95;92.96;97553.28;4959090;28;20035;-60
2021/12/26 05:27:33;;;;;;;28.48;21.25;;;;;;;3.90;92.62;97563.13;4961648;28;20034;-61
2021/12/26 05:29:58;;;;;;;27.30;21.15;;;;;;;3.98;92.63;97558.19;4962979;28;20034;-61
2021/12/26 05:32:24;;;;;;;27.77;21.23;;;;;;;3.93;92.68;97547.47;4958699;28;20042;-61
2021/12/26 05:34:49;;;;;;;28.67;21.45;;;;;;;3.95;93.27;97555.84;4962473;28;20030;-60
2021/12/26 05:37:14;;;;;;;26.60;19.48;;;;;;;3.99;92.43;97553.84;4962852;28;20395;-61
2021/12/26 05:39:40;;;;;;;27.08;20.77;;;;;;;3.91;92.16;97554.50;4962169;28;20108;-61
2021/12/26 05:42:06;;;;;;;27.33;20.33;;;;;;;3.90;91.82;97557.19;4961939;28;20371;-61
2021/12/26 05:44:31;;;;;;;27.35;20.75;;;;;;;3.47;92.31;97508.41;4958392;28;20113;-61
2021/12/26 05:46:57;;;;;;;27.10;19.85;;;;;;;3.80;92.82;97562.28;4960366;28;20034;-61
2021/12/26 05:49:22;;;;;;;27.77;20.15;;;;;;;3.90;92.19;97563.13;4958953;28;20038;-61
2021/12/26 05:51:48;;;;;;;25.77;19.10;;;;;;;3.90;92.11;97564.91;4952959;28;20061;-61
2021/12/26 05:54:13;;;;;;;27.80;20.58;;;;;;;3.64;91.77;97511.31;4948833;28;20401;-60
2021/12/26 05:56:38;;;;;;;25.85;18.85;;;;;;;3.88;91.71;97567.59;4962317;28;20023;-61
2021/12/26 05:59:04;;;;;;;25.25;19.25;;;;;;;3.81;91.18;97561.34;4944587;28;20037;-60
2021/12/26 06:01:30;;;;;;;25.85;18.60;;;;;;;3.83;91.12;97559.44;4973927;28;20068;-60
2021/12/26 06:03:55;;;;;;;27.63;20.02;;;;;;;3.51;91.54;97514.09;4961437;28;20532;-61
2021/12/26 06:06:21;;;;;;;25.63;19.00;;;;;;;3.83;92.26;97552.56;4961814;28;20042;-61
2021/12/26 06:08:46;;;;;;;27.60;19.25;;;;;;;3.82;91.93;97560.41;4965795;28;20035;-61
2021/12/26 06:11:12;;;;;;;25.50;18.63;;;;;;;3.74;92.42;97555.91;4964833;28;20387;-62
2021/12/26 06:13:37;;;;;;;26.02;20.10;;;;;;;3.87;91.41;97549.72;4962467;28;20034;-61
2021/12/26 06:16:03;;;;;;;24.15;17.23;;;;;;;3.79;91.15;97540.88;4976240;28;20461;-61
2021/12/26 06:18:28;;;;;;;27.85;20.70;;;;;;;3.83;91.22;97541.44;4966281;28;20113;-60
2021/12/26 06:20:54;;;;;;;25.83;19.92;;;;;;;3.41;91.40;97495.22;4964659;28;20502;-61
2021/12/26 06:23:19;;;;;;;25.73;19.88;;;;;;;3.78;91.36;97543.59;4977397;28;20643;-60
2021/12/26 06:25:45;;;;;;;27.25;20.50;;;;;;;3.78;90.42;97535.91;4974127;28;20031;-61
2021/12/26 06:28:10;;;;;;;24.60;18.23;;;;;;;3.84;90.84;97536.19;4965315;28;20335;-61
2021/12/26 06:30:36;;;;;;;24.48;18.75;;;;;;;3.84;90.55;97535.38;4962762;28;20514;-60
2021/12/26 06:33:02;;;;;;;22.88;17.73;;;;;;;3.80;91.35;97541.72;4944923;28;20031;-61
2021/12/26 06:35:27;;;;;;;25.58;18.33;;;;;;;3.82;91.01;97538.06;4981341;28;20035;-60
2021/12/26 06:37:52;;;;;;;25.05;18.58;;;;;;;3.83;90.90;97539.72;4977622;28;20034;-61
2021/12/26 06:40:18;;;;;;;24.92;18.63;;;;;;;3.62;90.83;97529.44;4984369;28;20066;-60
2021/12/26 06:42:45;;;;;;;23.30;17.15;;;;;;;3.70;90.14;97533.13;4961468;28;20049;-60
2021/12/26 06:45:15;;;;;;;22.65;17.10;;;;;;;3.76;90.13;97548.88;4963743;28;20440;-60
2021/12/26 06:47:42;;;;;;;24.02;16.77;;;;;;;3.74;89.85;97537.06;4964083;28;20042;-60
2021/12/26 06:50:08;;;;;;;21.52;15.25;;;;;;;3.56;88.73;97509.41;4963542;28;20022;-60
2021/12/26 06:52:34;;;;;;;19.45;13.85;;;;;;;3.77;86.92;97522.19;4963117;28;20039;-61
2021/12/26 06:54:59;;;;;;;20.42;14.27;;;;;;;4.11;85.10;97557.16;4942635;28;20038;-60
2021/12/26 06:57:24;;;;;;;19.35;14.00;;;;;;;4.18;83.82;97543.63;4947140;28;20096;-61
2021/12/26 06:59:50;;;;;;;18.23;14.25;;;;;;;4.20;85.28;97541.75;4939649;28;20764;-61
2021/12/26 07:02:15;;;;;;;20.23;13.52;;;;;;;4.28;84.63;97548.00;4959949;28;20039;-61
2021/12/26 07:04:41;;;;;;;21.88;15.65;;;;;;;4.42;86.81;97574.19;4964663;28;20093;-60
2021/12/26 07:07:06;;;;;;;19.92;14.85;;;;;;;4.26;88.90;97573.03;4962891;28;20382;-60
2021/12/26 07:09:32;;;;;;;22.33;15.90;;;;;;;4.09;90.03;97583.00;4960515;28;20063;-60
2021/12/26 07:11:57;;;;;;;21.20;15.80;;;;;;;4.04;90.92;97596.25;4964681;28;20597;-60
2021/12/26 07:14:22;;;;;;;21.80;15.70;;;;;;;3.93;90.69;97590.38;4959329;28;20037;-61
2021/12/26 07:16:48;;;;;;;23.52;16.83;;;;;;;3.75;90.64;97552.38;4960996;28;20033;-61
2021/12/26 07:19:13;;;;;;;20.70;15.82;;;;;;;3.95;90.70;97591.06;4978973;28;20027;-61
2021/12/26 07:21:40;;;;;;;22.00;15.93;;;;;;;3.99;90.71;97603.53;4960713;28;20027;-61
2021/12/26 07:24:05;;;;;;;21.15;15.43;;;;;;;4.04;89.84;97606.53;4945640;28;20047;-60
2021/12/26 07:26:31;;;;;;;20.52;15.18;;;;;;;3.91;89.62;97593.06;4961461;28;20030;-61
2021/12/26 07:28:56;;;;;;;21.38;15.30;;;;;;;3.95;89.95;97609.06;4959828;28;20026;-61
2021/12/26 07:31:22;;;;;;;20.25;15.13;;;;;;;3.74;89.65;97573.06;4959341;28;20156;-60
2021/12/26 07:33:47;;;;;;;20.20;14.98;;;;;;;3.90;88.96;97606.06;4960807;28;20480;-61
2021/12/26 07:36:13;;;;;;;20.73;15.45;;;;;;;3.87;89.96;97612.28;4955306;28;20481;-61
2021/12/26 07:38:38;;;;;;;21.42;15.65;;;;;;;3.95;90.17;97609.06;4977572;28;20093;-61
2021/12/26 07:41:03;;;;;;;20.55;15.30;;;;;;;3.90;91.01;97612.00;4959397;28;20019;-60
2021/12/26 07:43:29;;;;;;;21.92;16.17;;;;;;;3.79;91.44;97594.06;4963583;28;20041;-61
2021/12/26 07:45:54;;;;;;;20.60;15.93;;;;;;;3.79;91.68;97610.31;4963226;28;20073;-61
2021/12/26 07:48:19;;;;;;;21.10;15.63;;;;;;;3.79;91.84;97596.66;4960430;28;20129;-61
2021/12/26 07:50:45;;;;;;;19.77;14.98;;;;;;;3.84;91.47;97602.22;4961615;28;20046;-60
2021/12/26 07:53:12;;;;;;;19.67;14.75;;;;;;;3.80;91.35;97613.72;4962874;28;20038;-61
2021/12/26 07:55:38;;;;;;;19.83;14.93;;;;;;;3.70;91.42;97598.22;4976797;28;20054;-60
2021/12/26 07:58:04;;;;;;;20.55;15.13;;;;;;;3.72;90.70;97573.19;4963535;28;20037;-61
2021/12/26 08:00:29;;;;;;;18.25;13.95;;;;;;;3.89;90.57;97612.97;4961328;28;20123;-60
2021/12/26 08:02:56;;;;;;;20.65;14.73;;;;;;;4.00;90.20;97627.50;4960135;28;20034;-61
2021/12/26 08:05:22;;;;;;;19.45;14.43;;;;;;;4.01;90.14;97619.63;4942753;28;20026;-60
2021/12/26 08:07:47;;;;;;;19.38;13.95;;;;;;;3.99;89.63;97623.28;4962215;28;20031;-61
2021/12/26 08:10:13;;;;;;;20.77;14.15;;;;;;;3.85;90.17;97624.41;4946440;28;20121;-61
2021/12/26 08:12:38;;;;;;;19.77;14.60;;;;;;;3.60;90.56;97587.88;4958274;28;20115;-61
2021/12/26 08:15:05;;;;;;;17.40;13.90;;;;;;;3.93;89.52;97619.47;4954691;28;20038;-61
2021/12/26 08:17:31;;;;;;;20.90;14.02;;;;;;;3.90;89.61;97622.28;4961021;28;20022;-61
2021/12/26 08:19:57;;;;;;;18.17;13.57;;;;;;;3.91;89.52;97621.34;4943278;28;20104;-61
2021/12/26 08:22:22;;;;;;;18.92;14.85;;;;;;;3.92;89.11;97630.69;4977677;28;20073;-61
2021/12/26 08:24:48;;;;;;;19.02;13.73;;;;;;;3.83;89.15;97619.44;4960835;28;20038;-61
2021/12/26 08:27:14;;;;;;;20.48;14.70;;;;;;;3.57;88.94;97580.41;4977467;28;20093;-61
2021/12/26 08:29:40;;;;;;;19.48;14.38;;;;;;;3.62;89.28;97588.56;4977653;28;20847;-61
2021/12/26 08:32:06;;;;;;;19.60;14.25;;;;;;;3.89;88.94;97628.38;4976120;28;20042;-61
2021/12/26 08:34:32;;;;;;;20.48;14.40;;;;;;;3.88;88.67;97624.19;4957825;28;20038;-61
2021/12/26 08:37:02;;;;;;;21.67;14.93;;;;;;;3.80;88.46;97629.97;4961774;28;20073;-61
2021/12/26 08:39:30;;;;;;;21.65;15.60;;;;;;;3.54;88.91;97600.41;4945077;28;20458;-61
2021/12/26 08:41:55;;;;;;;21.35;15.88;;;;;;;3.76;89.02;97628.59;4961715;28;20097;-61
2021/12/26 08:44:21;;;;;;;22.02;15.75;;;;;;;3.80;88.76;97639.44;4952792;28;20062;-61
2021/12/26 08:46:47;;;;;;;22.10;15.88;;;;;;;3.71;88.72;97630.72;4962106;28;20103;-61
2021/12/26 08:49:13;;;;;;;22.48;16.92;;;;;;;3.47;89.19;97598.34;4958987;28;20106;-61
2021/12/26 08:51:39;;;;;;;21.30;16.13;;;;;;;3.69;89.46;97629.19;4978671;28;20022;-61
2021/12/26 08:54:05;;;;;;;23.05;16.90;;;;;;;3.43;89.53;97601.28;4957153;28;20093;-61
2021/12/26 08:56:31;;;;;;;24.50;17.77;;;;;;;3.66;89.74;97646.50;4961133;28;20089;-61
2021/12/26 08:58:56;;;;;;;23.27;16.08;;;;;;;3.08;90.05;97604.94;4978764;28;20647;-61
2021/12/26 09:01:21;;;;;;;23.08;16.42;;;;;;;3.25;90.70;97650.66;4960478;28;20030;-61
2021/12/26 09:03:47;;;;;;;20.85;16.17;;;;;;;3.44;90.95;97644.03;4978158;28;20462;-61
2021/12/26 09:06:12;;;;;;;24.60;16.00;;;;;;;3.15;90.10;97602.69;4959559;28;20038;-61
2021/12/26 09:08:38;;;;;;;21.13;15.50;;;;;;;3.57;90.42;97669.56;4963208;28;20552;-61
2021/12/26 09:11:04;;;;;;;22.65;15.50;;;;;;;3.56;89.82;97655.91;4975084;28;20058;-61
2021/12/26 09:13:32;;;;;;;21.75;16.58;;;;;;;3.66;89.30;97668.81;4966620;28;20042;-60
2021/12/26 09:15:58;;;;;;;23.05;16.60;;;;;;;3.55;89.65;97666.31;4955660;28;20180;-61
2021/12/26 09:18:23;;;;;;;20.27;14.70;;;;;;;3.50;89.73;97669.25;4952423;28;20509;-61
2021/12/26 09:20:50;;;;;;;21.23;16.05;;;;;;;3.48;90.17;97668.56;4960598;28;20066;-61
2021/12/26 09:23:15;;;;;;;19.77;15.52;;;;;;;3.56;90.99;97675.66;4975827;28;20101;-60
2021/12/26 09:25:41;;;;;;;22.30;16.10;;;;;;;3.64;90.35;97658.66;4964394;28;20596;-61
2021/12/26 09:28:06;;;;;;;21.85;14.82;;;;;;;3.29;89.83;97607.56;4958893;28;20023;-61
2021/12/26 09:30:32;;;;;;;19.65;14.70;;;;;;;3.34;90.51;97661.13;4947594;28;20281;-61
2021/12/26 09:32:57;;;;;;;17.50;13.73;;;;;;;3.43;91.09;97670.66;4956371;28;20505;-61
2021/12/26 09:35:22;;;;;;;17.40;13.05;;;;;;;3.45;91.06;97673.97;4961062;28;20556;-61
2021/12/26 09:37:48;;;;;;;19.02;13.52;;;;;;;3.45;91.27;97666.25;4964490;28;20038;-61
2021/12/26 09:40:14;;;;;;;17.92;13.23;;;;;;;3.50;91.52;97676.94;4960909;28;20082;-61
2021/12/26 09:42:42;;;;;;;19.33;13.38;;;;;;;3.51;91.93;97676.03;4960796;28;20530;-61
2021/12/26 09:45:09;;;;;;;16.00;12.07;;;;;;;3.60;91.24;97677.84;4971991;28;20035;-62
2021/12/26 09:47:38;;;;;;;17.98;12.65;;;;;;;3.66;91.00;97681.69;4959598;28;20026;-61
2021/12/26 09:50:05;;;;;;;16.88;12.50;;;;;;;3.53;91.61;97676.72;4971757;28;20121;-61
2021/12/26 09:52:31;;;;;;;18.15;13.13;;;;;;;3.75;91.22;97683.50;4947106;28;20032;-61
2021/12/26 09:54:56;;;;;;;17.52;12.65;;;;;;;3.76;90.99;97679.19;4942892;28;20057;-61
2021/12/26 09:57:22;;;;;;;18.48;13.80;;;;;;;3.75;91.33;97675.00;4964915;28;20041;-61
2021/12/26 09:59:48;;;;;;;17.58;12.93;;;;;;;3.79;91.01;97668.66;4946628;28;20549;-62
2021/12/26 10:02:15;;;;;;;25.27;13.75;;;;;;;3.83;90.94;97665.72;4951973;28;20042;-61
2021/12/26 10:04:43;;;;;;;18.50;13.68;;;;;;;3.84;90.55;97648.53;4965956;28;20074;-61
2021/12/26 10:07:11;;;;;;;16.98;13.18;;;;;;;3.98;90.44;97662.81;4932558;28;20038;-62
2021/12/26 10:09:41;;;;;;;18.77;13.43;;;;;;;3.75;90.73;97606.38;4958139;28;20646;-61
2021/12/26 10:12:07;;;;;;;;;;;;;;;4.08;90.02;97650.03;4939955;28;20064;-61
2021/12/26 10:14:35;;;;;;;18.02;12.60;;;;;;;4.19;89.97;97647.34;4952509;28;19924;-61
2021/12/26 10:17:04;;;;;;;17.00;12.40;;;;;;;4.27;90.10;97641.56;4969842;28;20481;-61
2021/12/26 10:19:39;;;;;;;18.60;13.70;;;;;;;4.01;90.27;97587.97;4970786;28;20819;-61
2021/12/26 10:22:06;;;;;;;17.70;12.98;;;;;;;4.26;89.73;97625.31;4958926;28;20026;-61
2021/12/26 10:24:35;;;;;;;18.38;13.02;;;;;;;4.27;89.53;97629.53;4956923;28;20159;-61
2021/12/26 10:27:07;;;;;;;19.98;13.98;;;;;;;4.29;89.14;97619.94;4973687;28;20031;-61
2021/12/26 10:29:47;;;;;;;17.50;12.45;;;;;;;4.39;88.93;97614.81;4953397;28;20109;-61
2021/12/26 10:32:24;;;;;;;17.88;12.05;;;;;;;4.55;88.62;97612.56;4956579;28;20050;-61
2021/12/26 10:34:56;;;;;;;15.73;11.63;;;;;;;4.51;87.15;97615.50;4956486;28;20078;-61
2021/12/26 10:37:30;;;;;;;16.67;11.15;;;;;;;4.63;85.77;97606.75;4972533;28;20027;-61
2021/12/26 10:39:58;;;;;;;17.73;11.98;;;;;;;4.34;86.12;97574.00;4950656;28;20653;-61
2021/12/26 10:42:36;;;;;;;17.90;13.77;;;;;;;4.63;85.48;97607.53;4974680;28;20682;-60
2021/12/26 10:45:06;;;;;;;15.43;11.98;;;;;;;4.74;84.58;97613.53;4953208;28;20105;-60
2021/12/26 10:47:35;;;;;;;15.38;10.02;;;;;;;4.84;82.63;97619.53;4950863;28;20030;-60
2021/12/26 10:50:06;;;;;;;15.97;9.67;;;;;;;4.91;83.71;97618.06;4971638;28;20545;-60
2021/12/26 10:52:33;;;;;;;13.10;8.93;;;;;;;4.82;84.79;97587.97;4955244;28;20282;-60
2021/12/26 10:55:09;;;;;;;13.93;9.63;;;;;;;5.01;84.22;97620.66;4961416;28;20019;-60
2021/12/26 10:57:37;;;;;;;14.77;9.82;;;;;;;4.73;83.14;97568.16;4962868;28;20035;-60
2021/12/26 11:00:08;;;;;;;15.95;11.13;;;;;;;5.01;83.02;97600.03;4964869;28;20023;-60
2021/12/26 11:02:35;;;;;;;14.85;10.75;;;;;;;5.07;83.10;97606.41;4960195;28;20038;-60
2021/12/26 11:05:24;;;;;;;15.65;10.85;;;;;;;5.16;82.55;97608.97;4964425;28;20039;-60
2021/12/26 11:07:56;;;;;;;16.00;10.93;;;;;;;5.30;81.86;97605.19;4963932;28;20056;-60
2021/12/26 11:10:31;;;;;;;13.85;10.48;;;;;;;5.15;81.57;97579.03;4959551;28;20699;-61
2021/12/26 11:13:00;;;;;;;13.13;9.52;;;;;;;5.42;81.63;97599.91;4958206;28;20027;-60
2021/12/26 11:15:31;;;;;;;14.18;10.20;;;;;;;5.49;81.81;97611.28;4947713;28;20149;-60
2021/12/26 11:18:14;;;;;;;16.33;10.07;;;;;;;5.49;83.55;97606.13;4963529;28;20039;-60
2021/12/26 11:20:40;;;;;;;15.02;10.77;;;;;;;4.99;83.83;97525.44;4959106;28;20038;-60
2021/12/26 11:23:11;;;;;;;16.30;11.73;;;;;;;5.24;84.93;97564.53;4960731;28;20085;-60
2021/12/26 11:25:46;;;;;;;14.55;11.10;;;;;;;5.15;86.37;97573.06;4964930;28;20377;-60
2021/12/26 11:28:14;;;;;;;15.23;11.18;;;;;;;5.32;86.17;97608.47;4952531;28;20489;-60
2021/12/26 11:30:44;;;;;;;14.02;10.40;;;;;;;5.20;84.95;97576.03;4948840;28;20081;-60
2021/12/26 11:33:11;;;;;;;14.82;11.63;;;;;;;5.36;84.81;97598.69;4958007;28;20048;-60